Time;durP1;ratioP1;P1;durP2;ratioP2;P2;SDS_P1;SDS_P2;PMS_P1;PMS_P2;Temp;Humidity;BMP_temperature;BMP_pressure;BME280_temperature;BME280_humidity;BME280_pressure;Samples;Min_cycle;Max_cycle;Signal;HPM_P1;HPM_P2
2023/09/25 00:00:07;;;;;;;7.63;3.22;;;20.30;48.80;;;;;;351315;28;900;-55
2023/09/25 00:00:18;;;;;;;8.05;3.25;;;20.30;48.70;;;;;;351166;28;1954;-55
2023/09/25 00:00:31;;;;;;;6.82;3.20;;;20.30;48.70;;;;;;351233;28;853;-55
2023/09/25 00:00:43;;;;;;;6.38;3.15;;;20.30;48.70;;;;;;351222;28;1200;-55
2023/09/25 00:00:54;;;;;;;6.40;3.08;;;20.30;48.70;;;;;;351234;28;1071;-55
2023/09/25 00:01:05;;;;;;;7.00;2.92;;;20.30;48.80;;;;;;351167;28;1182;-55
2023/09/25 00:01:16;;;;;;;6.77;2.83;;;20.30;48.80;;;;;;351299;28;825;-55
2023/09/25 00:01:27;;;;;;;7.30;2.80;;;20.30;48.80;;;;;;351276;28;935;-54
2023/09/25 00:01:38;;;;;;;6.40;2.92;;;20.30;48.70;;;;;;351209;28;1361;-55
2023/09/25 00:01:48;;;;;;;4.63;2.90;;;20.30;48.80;;;;;;351225;28;1094;-55
2023/09/25 00:01:59;;;;;;;5.10;3.00;;;20.30;48.80;;;;;;351222;28;1060;-55
2023/09/25 00:02:10;;;;;;;5.43;3.33;;;20.30;48.80;;;;;;351235;28;1103;-54
2023/09/25 00:02:21;;;;;;;6.50;3.60;;;20.30;48.80;;;;;;351161;28;1488;-55
2023/09/25 00:02:33;;;;;;;8.32;3.80;;;20.30;48.80;;;;;;351259;28;1008;-55
2023/09/25 00:02:43;;;;;;;8.40;3.97;;;20.30;48.80;;;;;;351350;28;825;-55
2023/09/25 00:02:54;;;;;;;8.27;4.03;;;20.30;48.80;;;;;;351198;28;1102;-55
2023/09/25 00:03:06;;;;;;;5.97;3.67;;;20.30;48.80;;;;;;351135;28;1114;-54
2023/09/25 00:03:16;;;;;;;6.57;3.58;;;20.30;48.90;;;;;;351279;28;988;-54
2023/09/25 00:03:27;;;;;;;6.73;3.70;;;20.30;48.90;;;;;;351244;28;1174;-55
2023/09/25 00:03:38;;;;;;;7.50;3.67;;;20.30;48.80;;;;;;351246;28;1019;-55
2023/09/25 00:03:49;;;;;;;5.95;3.50;;;20.30;48.90;;;;;;351271;28;910;-55
2023/09/25 00:04:00;;;;;;;5.50;3.20;;;20.30;48.90;;;;;;351272;28;1844;-54
2023/09/25 00:04:11;;;;;;;5.50;3.22;;;20.30;48.90;;;;;;351285;28;939;-55
2023/09/25 00:04:25;;;;;;;6.72;3.35;;;20.30;48.90;;;;;;351181;28;1027;-55
2023/09/25 00:04:36;;;;;;;6.13;3.30;;;20.30;48.90;;;;;;351169;28;1034;-54
2023/09/25 00:04:47;;;;;;;5.13;3.25;;;20.30;48.90;;;;;;351290;28;1074;-54
2023/09/25 00:04:57;;;;;;;6.03;3.28;;;20.30;48.90;;;;;;351235;28;1098;-54
2023/09/25 00:05:08;;;;;;;6.07;3.30;;;20.30;48.80;;;;;;351234;28;927;-55
2023/09/25 00:05:19;;;;;;;6.13;3.08;;;20.30;48.90;;;;;;351148;28;972;-55
2023/09/25 00:05:30;;;;;;;6.50;3.00;;;20.30;48.90;;;;;;351222;28;1111;-55
2023/09/25 00:05:42;;;;;;;6.63;3.22;;;20.30;48.90;;;;;;351273;28;1022;-54
2023/09/25 00:05:54;;;;;;;5.88;3.38;;;20.30;48.90;;;;;;351264;28;1035;-55
2023/09/25 00:06:05;;;;;;;5.30;3.40;;;20.30;48.90;;;;;;351205;28;992;-54
2023/09/25 00:06:15;;;;;;;5.13;3.30;;;20.30;48.90;;;;;;351314;28;797;-54
2023/09/25 00:06:27;;;;;;;6.07;3.40;;;20.30;48.90;;;;;;351234;28;1027;-55
2023/09/25 00:06:38;;;;;;;6.05;3.17;;;20.30;48.90;;;;;;351233;28;1046;-55
2023/09/25 00:06:48;;;;;;;6.10;3.30;;;20.30;48.90;;;;;;351221;28;1012;-55
2023/09/25 00:07:01;;;;;;;5.25;3.35;;;20.30;48.90;;;;;;351238;28;1157;-55
2023/09/25 00:07:11;;;;;;;6.55;3.40;;;20.30;48.90;;;;;;351264;28;857;-55
2023/09/25 00:07:22;;;;;;;6.70;3.20;;;20.30;48.90;;;;;;351223;28;1062;-55
2023/09/25 00:07:33;;;;;;;6.57;3.10;;;20.30;48.90;;;;;;351135;28;1146;-54
2023/09/25 00:07:43;;;;;;;5.77;3.07;;;20.30;48.90;;;;;;351287;28;1041;-54
2023/09/25 00:07:54;;;;;;;5.78;3.03;;;20.30;48.90;;;;;;351193;28;1042;-55
2023/09/25 00:08:05;;;;;;;6.00;3.00;;;20.30;48.90;;;;;;351274;28;856;-54
2023/09/25 00:08:16;;;;;;;5.93;3.17;;;20.30;48.90;;;;;;351174;28;1094;-54
2023/09/25 00:08:27;;;;;;;6.13;3.28;;;20.30;49.00;;;;;;351278;28;1038;-54
2023/09/25 00:08:38;;;;;;;6.18;3.35;;;20.30;49.10;;;;;;351231;28;1081;-55
2023/09/25 00:08:48;;;;;;;6.07;3.28;;;20.30;49.00;;;;;;351268;28;935;-56
2023/09/25 00:08:59;;;;;;;5.63;3.10;;;20.30;49.00;;;;;;351190;28;2029;-54
2023/09/25 00:09:11;;;;;;;4.83;2.90;;;20.30;49.00;;;;;;351198;28;1685;-55
2023/09/25 00:09:23;;;;;;;5.15;3.13;;;20.30;49.00;;;;;;351325;28;962;-54
2023/09/25 00:09:33;;;;;;;5.40;3.20;;;20.30;49.00;;;;;;351063;28;1221;-54
2023/09/25 00:09:44;;;;;;;5.00;3.10;;;20.30;49.00;;;;;;351254;28;1749;-54
2023/09/25 00:09:55;;;;;;;5.07;3.00;;;20.20;49.00;;;;;;351214;28;1304;-54
2023/09/25 00:10:07;;;;;;;5.40;3.22;;;20.20;49.00;;;;;;351310;28;829;-55
2023/09/25 00:10:18;;;;;;;7.07;3.60;;;20.30;49.00;;;;;;351188;28;1531;-55
2023/09/25 00:10:31;;;;;;;7.90;3.80;;;20.30;49.00;;;;;;351292;28;820;-54
2023/09/25 00:10:41;;;;;;;7.15;3.72;;;20.20;49.00;;;;;;351168;28;1194;-54
2023/09/25 00:10:52;;;;;;;7.50;3.33;;;20.30;49.00;;;;;;351172;28;1102;-55
2023/09/25 00:11:03;;;;;;;6.93;3.13;;;20.30;49.00;;;;;;351269;28;1014;-55
2023/09/25 00:11:14;;;;;;;7.63;3.28;;;20.30;48.90;;;;;;351222;28;1162;-54
2023/09/25 00:11:25;;;;;;;6.70;3.40;;;20.30;48.90;;;;;;351252;28;979;-55
2023/09/25 00:11:35;;;;;;;6.15;3.25;;;20.30;48.90;;;;;;351125;28;1026;-54
2023/09/25 00:11:46;;;;;;;6.13;3.10;;;20.20;49.00;;;;;;351242;28;1019;-55
2023/09/25 00:11:57;;;;;;;6.45;3.20;;;20.30;48.90;;;;;;351325;28;825;-54
2023/09/25 00:12:08;;;;;;;6.47;3.23;;;20.30;48.90;;;;;;351259;28;1011;-55
2023/09/25 00:12:18;;;;;;;6.32;3.50;;;20.20;49.00;;;;;;351197;28;902;-55
2023/09/25 00:12:29;;;;;;;5.28;3.17;;;20.20;49.00;;;;;;351221;28;2634;-55
2023/09/25 00:12:40;;;;;;;5.82;3.03;;;20.20;49.00;;;;;;351220;28;840;-54
2023/09/25 00:12:50;;;;;;;6.10;2.90;;;20.20;49.00;;;;;;351290;28;828;-54
2023/09/25 00:13:01;;;;;;;7.10;2.95;;;20.30;49.00;;;;;;351099;28;1925;-54
2023/09/25 00:13:12;;;;;;;7.22;3.10;;;20.20;49.00;;;;;;351170;28;1369;-54
2023/09/25 00:13:23;;;;;;;6.80;3.17;;;20.20;49.00;;;;;;351237;28;944;-53
2023/09/25 00:13:34;;;;;;;5.88;3.30;;;20.20;49.00;;;;;;351181;28;1111;-55
2023/09/25 00:13:45;;;;;;;7.90;3.50;;;20.20;49.00;;;;;;351179;28;987;-54
2023/09/25 00:13:56;;;;;;;7.75;3.40;;;20.20;49.00;;;;;;351217;28;1141;-55
2023/09/25 00:14:07;;;;;;;8.25;3.28;;;20.20;49.00;;;;;;351234;28;1002;-55
2023/09/25 00:14:18;;;;;;;5.70;2.92;;;20.20;49.00;;;;;;351180;28;1442;-53
2023/09/25 00:14:29;;;;;;;4.78;3.10;;;20.20;49.00;;;;;;351101;28;1479;-55
2023/09/25 00:14:40;;;;;;;5.50;3.28;;;20.20;49.00;;;;;;351224;28;1865;-55
2023/09/25 00:14:50;;;;;;;6.47;3.22;;;20.20;49.00;;;;;;351130;28;1153;-55
2023/09/25 00:15:02;;;;;;;6.60;3.17;;;20.20;49.00;;;;;;351254;28;967;-54
2023/09/25 00:15:13;;;;;;;6.80;3.13;;;20.20;49.00;;;;;;351188;28;874;-55
2023/09/25 00:15:25;;;;;;;5.80;3.10;;;20.20;49.00;;;;;;351249;28;824;-54
2023/09/25 00:15:42;;;;;;;5.55;2.97;;;20.20;48.90;;;;;;351167;28;947;-55
2023/09/25 00:15:53;;;;;;;5.78;3.05;;;20.20;49.00;;;;;;351242;28;1659;-56
2023/09/25 00:16:04;;;;;;;5.57;2.83;;;20.20;48.90;;;;;;351152;28;1150;-53
2023/09/25 00:16:19;;;;;;;5.65;2.85;;;20.20;49.00;;;;;;351168;28;1658;-55
2023/09/25 00:16:29;;;;;;;5.53;3.20;;;20.20;49.00;;;;;;351212;28;848;-55
2023/09/25 00:16:40;;;;;;;7.00;3.53;;;20.20;49.00;;;;;;351257;28;857;-54
2023/09/25 00:16:51;;;;;;;6.80;3.55;;;20.20;49.00;;;;;;351085;28;1193;-55
2023/09/25 00:17:02;;;;;;;6.57;3.53;;;20.20;49.00;;;;;;351254;28;1068;-54
2023/09/25 00:17:13;;;;;;;5.18;3.40;;;20.20;49.00;;;;;;351161;28;1023;-55
2023/09/25 00:17:23;;;;;;;5.75;3.20;;;20.20;49.00;;;;;;351225;28;2548;-55
2023/09/25 00:17:36;;;;;;;5.35;3.10;;;20.20;49.00;;;;;;351267;28;883;-55
2023/09/25 00:17:47;;;;;;;4.93;3.08;;;20.20;49.00;;;;;;351101;28;1007;-55
2023/09/25 00:17:58;;;;;;;4.80;3.22;;;20.20;49.00;;;;;;351189;28;1596;-56
2023/09/25 00:18:09;;;;;;;6.00;3.23;;;20.20;49.00;;;;;;351117;28;1840;-56
2023/09/25 00:18:19;;;;;;;6.88;3.40;;;20.20;49.00;;;;;;351141;28;1485;-54
2023/09/25 00:18:30;;;;;;;6.82;3.13;;;20.20;49.00;;;;;;351163;28;1022;-55
2023/09/25 00:18:41;;;;;;;5.57;3.10;;;20.20;49.00;;;;;;351194;28;1701;-54
2023/09/25 00:18:52;;;;;;;5.40;2.92;;;20.20;49.00;;;;;;351226;28;999;-55
2023/09/25 00:19:04;;;;;;;4.97;2.90;;;20.20;49.00;;;;;;351131;28;1015;-55
2023/09/25 00:19:15;;;;;;;4.55;2.85;;;20.20;49.00;;;;;;351292;28;884;-56
2023/09/25 00:19:26;;;;;;;5.25;3.00;;;20.20;49.00;;;;;;351210;28;1134;-54
2023/09/25 00:19:37;;;;;;;6.18;3.10;;;20.20;49.00;;;;;;351151;28;1232;-55
2023/09/25 00:19:47;;;;;;;5.90;3.10;;;20.20;49.00;;;;;;351275;28;1011;-54
2023/09/25 00:19:58;;;;;;;6.00;3.40;;;20.20;49.00;;;;;;351226;28;995;-55
2023/09/25 00:20:10;;;;;;;5.57;3.38;;;20.20;49.10;;;;;;351166;28;1063;-56
2023/09/25 00:20:24;;;;;;;5.72;3.35;;;20.20;49.10;;;;;;351201;28;1185;-54
2023/09/25 00:20:34;;;;;;;5.80;3.10;;;20.20;49.20;;;;;;351203;28;1031;-56
2023/09/25 00:20:45;;;;;;;5.33;3.03;;;20.20;49.20;;;;;;351164;28;1053;-54
2023/09/25 00:20:56;;;;;;;4.90;3.08;;;20.20;49.20;;;;;;351202;28;1471;-53
2023/09/25 00:21:06;;;;;;;4.57;2.88;;;20.20;49.20;;;;;;351293;28;915;-54
2023/09/25 00:21:18;;;;;;;5.10;2.87;;;20.20;49.30;;;;;;351135;28;1416;-55
2023/09/25 00:21:30;;;;;;;5.72;2.90;;;20.20;49.30;;;;;;351231;28;1490;-55
2023/09/25 00:21:40;;;;;;;6.05;2.92;;;20.20;49.30;;;;;;351240;28;1071;-56
2023/09/25 00:21:51;;;;;;;4.73;2.70;;;20.20;49.30;;;;;;351183;28;975;-54
2023/09/25 00:22:02;;;;;;;4.93;2.60;;;20.20;49.30;;;;;;351216;28;1055;-55
2023/09/25 00:22:13;;;;;;;4.53;2.63;;;20.20;49.30;;;;;;351230;28;928;-55
2023/09/25 00:22:24;;;;;;;5.10;2.92;;;20.20;49.30;;;;;;351102;28;1567;-55
2023/09/25 00:22:35;;;;;;;4.90;2.88;;;20.20;49.40;;;;;;351208;28;1435;-54
2023/09/25 00:22:46;;;;;;;5.38;2.80;;;20.20;49.50;;;;;;351255;28;987;-55
2023/09/25 00:22:57;;;;;;;5.18;2.63;;;20.20;49.50;;;;;;351159;28;1008;-55
2023/09/25 00:23:08;;;;;;;5.45;2.70;;;20.20;49.50;;;;;;351172;28;1145;-55
2023/09/25 00:23:19;;;;;;;5.53;2.67;;;20.20;49.50;;;;;;351250;28;880;-56
2023/09/25 00:23:30;;;;;;;5.40;2.83;;;20.20;49.50;;;;;;351148;28;919;-55
2023/09/25 00:23:41;;;;;;;5.30;2.90;;;20.20;49.50;;;;;;351207;28;1317;-55
2023/09/25 00:23:51;;;;;;;5.57;2.73;;;20.20;49.50;;;;;;351202;28;1254;-55
2023/09/25 00:24:02;;;;;;;5.38;2.97;;;20.20;49.50;;;;;;351230;28;1099;-55
2023/09/25 00:24:13;;;;;;;5.20;2.95;;;20.20;49.50;;;;;;350983;28;1166;-54
2023/09/25 00:24:24;;;;;;;4.70;2.92;;;20.20;49.60;;;;;;350898;28;1299;-55
2023/09/25 00:24:35;;;;;;;5.00;2.90;;;20.20;49.60;;;;;;350925;28;1008;-54
2023/09/25 00:24:46;;;;;;;5.70;2.97;;;20.20;49.60;;;;;;351016;28;880;-55
2023/09/25 00:24:57;;;;;;;6.85;3.15;;;20.20;49.70;;;;;;351080;28;880;-54
2023/09/25 00:25:08;;;;;;;7.97;3.20;;;20.20;49.60;;;;;;351103;28;1114;-55
2023/09/25 00:25:19;;;;;;;8.32;3.30;;;20.20;49.60;;;;;;351152;28;890;-54
2023/09/25 00:25:31;;;;;;;7.97;3.10;;;20.20;49.60;;;;;;351239;28;944;-56
2023/09/25 00:25:42;;;;;;;6.28;2.80;;;20.20;49.60;;;;;;351200;28;1027;-55
2023/09/25 00:26:01;;;;;;;6.13;2.90;;;20.20;49.60;;;;;;351239;28;959;-55
2023/09/25 00:26:13;;;;;;;6.55;3.13;;;20.20;49.60;;;;;;351157;28;997;-54
2023/09/25 00:26:24;;;;;;;4.78;2.90;;;20.10;49.60;;;;;;351226;28;1925;-55
2023/09/25 00:26:35;;;;;;;4.40;2.90;;;20.20;49.60;;;;;;351242;28;892;-56
2023/09/25 00:26:46;;;;;;;4.95;3.10;;;20.20;49.60;;;;;;351204;28;1422;-56
2023/09/25 00:26:56;;;;;;;5.72;2.95;;;20.10;49.60;;;;;;351213;28;1439;-55
2023/09/25 00:27:07;;;;;;;6.40;3.03;;;20.20;49.60;;;;;;351138;28;1022;-56
2023/09/25 00:27:18;;;;;;;7.18;3.15;;;20.20;49.60;;;;;;351247;28;1087;-55
2023/09/25 00:27:31;;;;;;;7.30;3.15;;;20.10;49.60;;;;;;351248;28;963;-53
2023/09/25 00:27:42;;;;;;;6.43;3.20;;;20.10;49.60;;;;;;351233;28;884;-55
2023/09/25 00:27:53;;;;;;;5.97;3.10;;;20.10;49.60;;;;;;351240;28;1011;-55
2023/09/25 00:28:03;;;;;;;5.38;3.08;;;20.20;49.60;;;;;;351219;28;921;-54
2023/09/25 00:28:14;;;;;;;4.93;2.90;;;20.20;49.60;;;;;;351215;28;1010;-54
2023/09/25 00:28:26;;;;;;;6.20;3.03;;;20.20;49.60;;;;;;351233;28;919;-57
2023/09/25 00:28:39;;;;;;;7.10;3.00;;;20.20;49.60;;;;;;351202;28;1023;-54
2023/09/25 00:28:49;;;;;;;6.75;2.90;;;20.20;49.60;;;;;;351200;28;1082;-56
2023/09/25 00:29:00;;;;;;;5.60;2.75;;;20.10;49.60;;;;;;351133;28;1355;-57
2023/09/25 00:29:11;;;;;;;4.30;2.60;;;20.10;49.60;;;;;;351260;28;821;-54
2023/09/25 00:29:22;;;;;;;4.60;2.55;;;20.10;49.60;;;;;;351185;28;1118;-55
2023/09/25 00:29:33;;;;;;;5.83;2.67;;;20.20;49.60;;;;;;351210;28;1060;-55
2023/09/25 00:29:43;;;;;;;6.40;2.70;;;20.10;49.60;;;;;;351238;28;1778;-55
2023/09/25 00:29:54;;;;;;;5.90;2.83;;;20.20;49.60;;;;;;351239;28;1015;-55
2023/09/25 00:30:08;;;;;;;4.60;2.70;;;20.10;49.60;;;;;;351131;28;1921;-55
2023/09/25 00:30:19;;;;;;;3.80;2.53;;;20.20;49.60;;;;;;351204;28;959;-54
2023/09/25 00:30:30;;;;;;;4.20;2.80;;;20.10;49.60;;;;;;351145;28;1482;-54
2023/09/25 00:30:40;;;;;;;4.75;2.92;;;20.10;49.60;;;;;;351095;28;1275;-54
2023/09/25 00:30:51;;;;;;;5.50;3.10;;;20.20;49.60;;;;;;351241;28;976;-54
2023/09/25 00:31:02;;;;;;;5.28;2.97;;;20.20;49.60;;;;;;351209;28;1003;-55
2023/09/25 00:31:12;;;;;;;4.97;2.88;;;20.10;49.70;;;;;;351153;28;1075;-55
2023/09/25 00:31:23;;;;;;;5.00;2.70;;;20.20;49.60;;;;;;351167;28;1094;-54
2023/09/25 00:31:34;;;;;;;5.40;2.80;;;20.20;49.70;;;;;;351208;28;1814;-55
2023/09/25 00:31:45;;;;;;;6.15;2.90;;;20.10;49.70;;;;;;351100;28;1161;-55
2023/09/25 00:31:55;;;;;;;5.97;3.00;;;20.20;49.70;;;;;;351250;28;872;-54
2023/09/25 00:32:06;;;;;;;5.73;2.80;;;20.10;49.70;;;;;;351205;28;1003;-55
2023/09/25 00:32:17;;;;;;;5.00;2.70;;;20.20;49.70;;;;;;351121;28;1650;-55
2023/09/25 00:32:27;;;;;;;4.70;2.80;;;20.10;49.70;;;;;;351253;28;958;-56
2023/09/25 00:32:38;;;;;;;5.10;2.90;;;20.20;49.70;;;;;;351255;28;1094;-54
2023/09/25 00:32:50;;;;;;;4.55;2.67;;;20.10;49.70;;;;;;351121;28;1952;-54
2023/09/25 00:33:01;;;;;;;4.65;2.60;;;20.10;49.70;;;;;;351173;28;1914;-54
2023/09/25 00:33:12;;;;;;;4.22;2.67;;;20.10;49.70;;;;;;351193;28;1062;-54
2023/09/25 00:33:23;;;;;;;4.35;2.63;;;20.10;49.70;;;;;;351124;28;1102;-54
2023/09/25 00:33:33;;;;;;;4.32;2.67;;;20.10;49.70;;;;;;351201;28;1291;-56
2023/09/25 00:33:44;;;;;;;4.75;2.63;;;20.10;49.70;;;;;;351171;28;1158;-54
2023/09/25 00:33:56;;;;;;;4.60;2.77;;;20.10;49.80;;;;;;351151;28;907;-54
2023/09/25 00:34:06;;;;;;;4.70;2.60;;;20.10;49.80;;;;;;351141;28;1350;-54
2023/09/25 00:34:17;;;;;;;5.45;2.70;;;20.10;49.80;;;;;;351153;28;1114;-55
2023/09/25 00:34:28;;;;;;;5.90;2.90;;;20.10;49.80;;;;;;351130;28;1471;-57
2023/09/25 00:34:39;;;;;;;5.60;2.90;;;20.10;49.80;;;;;;351216;28;1862;-55
2023/09/25 00:34:49;;;;;;;6.07;2.97;;;20.10;49.80;;;;;;351210;28;1039;-55
2023/09/25 00:35:01;;;;;;;6.35;2.70;;;20.10;49.90;;;;;;350974;28;1163;-54
2023/09/25 00:35:12;;;;;;;5.22;2.46;;;20.10;49.80;;;;;;351254;28;848;-54
2023/09/25 00:35:23;;;;;;;4.78;2.33;;;20.10;49.90;;;;;;351232;28;1167;-54
2023/09/25 00:35:34;;;;;;;5.65;2.50;;;20.10;49.80;;;;;;351069;28;1111;-57
2023/09/25 00:35:46;;;;;;;5.37;2.57;;;20.10;49.90;;;;;;351166;28;1091;-54
2023/09/25 00:35:56;;;;;;;6.22;2.42;;;20.00;49.90;;;;;;351199;28;1091;-55
2023/09/25 00:36:07;;;;;;;6.05;2.50;;;20.10;49.90;;;;;;351176;28;1027;-54
2023/09/25 00:36:18;;;;;;;6.20;2.67;;;20.00;49.90;;;;;;351233;28;1035;-54
2023/09/25 00:36:28;;;;;;;5.80;2.90;;;20.10;49.90;;;;;;351195;28;992;-55
2023/09/25 00:36:39;;;;;;;5.27;2.97;;;20.00;49.90;;;;;;351091;28;1449;-54
2023/09/25 00:36:50;;;;;;;4.43;2.88;;;20.00;50.00;;;;;;351204;28;987;-56
2023/09/25 00:37:01;;;;;;;4.63;2.90;;;20.00;49.90;;;;;;351236;28;817;-54
2023/09/25 00:37:12;;;;;;;4.50;2.90;;;20.00;50.00;;;;;;351150;28;1026;-54
2023/09/25 00:37:22;;;;;;;4.60;2.75;;;20.00;50.00;;;;;;351237;28;956;-54
2023/09/25 00:37:34;;;;;;;5.33;2.63;;;20.00;50.00;;;;;;351231;28;1015;-55
2023/09/25 00:37:45;;;;;;;5.95;2.75;;;20.10;50.10;;;;;;351142;28;1166;-54
2023/09/25 00:37:55;;;;;;;6.00;2.90;;;20.00;50.10;;;;;;351258;28;991;-55
2023/09/25 00:38:07;;;;;;;5.07;2.80;;;20.00;50.10;;;;;;351262;28;1058;-55
2023/09/25 00:38:17;;;;;;;5.55;2.80;;;20.00;50.10;;;;;;351101;28;1197;-54
2023/09/25 00:38:28;;;;;;;6.18;2.50;;;20.00;50.10;;;;;;351268;28;911;-56
2023/09/25 00:38:39;;;;;;;6.13;2.50;;;20.00;50.10;;;;;;351217;28;1018;-55
2023/09/25 00:38:50;;;;;;;5.13;2.50;;;20.00;50.10;;;;;;351185;28;1098;-55
2023/09/25 00:39:00;;;;;;;4.30;2.60;;;20.00;50.10;;;;;;351252;28;797;-55
2023/09/25 00:39:11;;;;;;;4.03;2.67;;;20.00;50.10;;;;;;351223;28;963;-55
2023/09/25 00:39:22;;;;;;;4.57;3.00;;;20.00;50.20;;;;;;351140;28;1027;-55
2023/09/25 00:39:32;;;;;;;4.57;3.10;;;20.00;50.10;;;;;;351150;28;1438;-55
2023/09/25 00:39:44;;;;;;;5.32;2.92;;;19.90;50.20;;;;;;351233;28;900;-55
2023/09/25 00:39:55;;;;;;;4.85;2.60;;;20.00;50.20;;;;;;351133;28;1043;-55
2023/09/25 00:40:13;;;;;;;4.97;2.60;;;20.00;50.20;;;;;;351188;28;1630;-55
2023/09/25 00:40:24;;;;;;;6.20;2.90;;;20.00;50.20;;;;;;351117;28;1421;-55
2023/09/25 00:40:36;;;;;;;6.28;3.00;;;20.00;50.20;;;;;;351116;28;931;-54
2023/09/25 00:40:47;;;;;;;5.15;3.00;;;20.00;50.30;;;;;;351173;28;1268;-56
2023/09/25 00:40:58;;;;;;;5.18;3.00;;;19.90;50.20;;;;;;351201;28;1114;-54
2023/09/25 00:41:09;;;;;;;5.67;2.87;;;19.90;50.30;;;;;;351125;28;1456;-54
2023/09/25 00:41:19;;;;;;;5.43;2.90;;;19.90;50.20;;;;;;351111;28;1611;-55
2023/09/25 00:41:30;;;;;;;5.07;2.72;;;19.90;50.30;;;;;;351236;28;849;-55
2023/09/25 00:41:41;;;;;;;5.35;2.58;;;19.90;50.30;;;;;;351143;28;940;-53
2023/09/25 00:41:51;;;;;;;5.27;2.70;;;19.90;50.30;;;;;;351220;28;1038;-55
2023/09/25 00:42:02;;;;;;;5.40;2.80;;;19.90;50.30;;;;;;351162;28;1102;-55
2023/09/25 00:42:13;;;;;;;5.43;2.80;;;19.90;50.30;;;;;;351088;28;1177;-54
2023/09/25 00:42:24;;;;;;;5.60;2.55;;;19.90;50.30;;;;;;351223;28;829;-55
2023/09/25 00:42:34;;;;;;;5.55;2.53;;;19.90;50.30;;;;;;351226;28;1027;-55
2023/09/25 00:42:51;;;;;;;5.83;2.60;;;19.90;50.30;;;;;;351063;28;1309;-54
2023/09/25 00:43:02;;;;;;;6.15;2.70;;;19.90;50.40;;;;;;351179;28;1066;-55
2023/09/25 00:43:13;;;;;;;5.07;2.63;;;19.90;50.40;;;;;;351160;28;1103;-56
2023/09/25 00:43:24;;;;;;;4.32;2.50;;;19.80;50.40;;;;;;351109;28;1094;-55
2023/09/25 00:43:35;;;;;;;4.53;2.70;;;19.90;50.40;;;;;;351095;28;1733;-55
2023/09/25 00:43:45;;;;;;;4.63;2.70;;;19.80;50.40;;;;;;351223;28;983;-56
2023/09/25 00:43:56;;;;;;;4.97;2.60;;;19.80;50.40;;;;;;351125;28;1046;-54
2023/09/25 00:44:07;;;;;;;5.40;2.50;;;19.90;50.40;;;;;;351175;28;1074;-54
2023/09/25 00:44:17;;;;;;;5.40;2.35;;;19.90;50.40;;;;;;351138;28;983;-55
2023/09/25 00:44:28;;;;;;;4.67;2.57;;;19.80;50.40;;;;;;351165;28;1222;-54
2023/09/25 00:44:39;;;;;;;4.38;2.65;;;19.80;50.40;;;;;;351119;28;1073;-56
2023/09/25 00:44:49;;;;;;;4.70;2.75;;;19.80;50.40;;;;;;351213;28;1051;-55
2023/09/25 00:45:00;;;;;;;5.70;2.50;;;19.80;50.40;;;;;;351102;28;1147;-56
2023/09/25 00:45:11;;;;;;;6.37;2.50;;;19.80;50.40;;;;;;351230;28;789;-55
2023/09/25 00:45:22;;;;;;;6.32;2.70;;;19.80;50.30;;;;;;351129;28;1058;-54
2023/09/25 00:45:37;;;;;;;6.43;2.90;;;19.80;50.40;;;;;;351180;28;1201;-55
2023/09/25 00:45:49;;;;;;;5.10;2.60;;;19.80;50.40;;;;;;351151;28;983;-54
2023/09/25 00:46:00;;;;;;;4.32;2.55;;;19.80;50.40;;;;;;351206;28;1077;-54
2023/09/25 00:46:11;;;;;;;4.25;2.50;;;19.80;50.40;;;;;;351136;28;1027;-55
2023/09/25 00:46:21;;;;;;;4.20;2.58;;;19.80;50.40;;;;;;351159;28;1649;-54
2023/09/25 00:46:32;;;;;;;3.67;2.50;;;19.70;50.40;;;;;;351118;28;1015;-54
2023/09/25 00:46:44;;;;;;;3.97;2.75;;;19.70;50.30;;;;;;351173;28;1039;-55
2023/09/25 00:46:54;;;;;;;4.35;2.75;;;19.80;50.40;;;;;;351118;28;1058;-55
2023/09/25 00:47:08;;;;;;;5.10;3.08;;;19.80;50.40;;;;;;351232;28;816;-55
2023/09/25 00:47:19;;;;;;;5.10;2.85;;;19.80;50.40;;;;;;351097;28;1043;-54
2023/09/25 00:47:29;;;;;;;4.88;2.65;;;19.70;50.40;;;;;;351205;28;995;-54
2023/09/25 00:47:42;;;;;;;5.50;2.63;;;19.70;50.50;;;;;;350999;28;1522;-55
2023/09/25 00:47:53;;;;;;;5.65;2.85;;;19.80;50.50;;;;;;351203;28;1035;-55
2023/09/25 00:48:05;;;;;;;4.60;2.80;;;19.70;50.50;;;;;;351104;28;1155;-54
2023/09/25 00:48:26;;;;;;;4.47;2.67;;;19.70;50.50;;;;;;351086;28;1106;-56
2023/09/25 00:48:42;;;;;;;5.60;2.75;;;19.70;50.50;;;;;;351130;28;1171;-54
2023/09/25 00:48:52;;;;;;;4.85;2.80;;;19.70;50.50;;;;;;351177;28;999;-55
2023/09/25 00:49:03;;;;;;;4.97;2.80;;;19.70;50.50;;;;;;351140;28;1161;-55
2023/09/25 00:49:14;;;;;;;6.03;2.90;;;19.70;50.50;;;;;;352396;28;1025;-54
2023/09/25 00:49:26;;;;;;;6.22;2.80;;;19.70;50.50;;;;;;352538;28;984;-56
2023/09/25 00:49:38;;;;;;;6.07;2.85;;;19.70;50.50;;;;;;352438;28;1134;-55
2023/09/25 00:49:49;;;;;;;4.90;2.78;;;19.70;50.50;;;;;;352458;28;1015;-54
2023/09/25 00:50:03;;;;;;;5.20;2.72;;;19.70;50.50;;;;;;352418;28;998;-53
2023/09/25 00:50:13;;;;;;;5.95;2.63;;;19.70;50.60;;;;;;352500;28;1891;-54
2023/09/25 00:50:29;;;;;;;6.65;2.72;;;19.70;50.60;;;;;;352461;28;956;-54
2023/09/25 00:50:40;;;;;;;5.78;2.72;;;19.70;50.60;;;;;;352468;28;853;-55
2023/09/25 00:50:52;;;;;;;4.90;2.58;;;19.70;50.60;;;;;;352371;28;1358;-55
2023/09/25 00:51:04;;;;;;;5.03;2.72;;;19.70;50.60;;;;;;352458;28;991;-55
2023/09/25 00:51:15;;;;;;;5.65;2.88;;;19.70;50.50;;;;;;351196;28;1007;-54
2023/09/25 00:51:26;;;;;;;5.65;2.97;;;19.70;50.60;;;;;;351206;28;960;-55
2023/09/25 00:51:37;;;;;;;5.03;2.95;;;19.70;50.60;;;;;;351076;28;1121;-54
2023/09/25 00:51:48;;;;;;;4.57;2.80;;;19.70;50.70;;;;;;351177;28;1111;-54
2023/09/25 00:51:59;;;;;;;4.22;2.72;;;19.70;50.70;;;;;;351194;28;980;-53
2023/09/25 00:52:12;;;;;;;4.20;2.65;;;19.70;50.70;;;;;;351183;28;1130;-55
2023/09/25 00:52:23;;;;;;;5.10;2.78;;;19.70;50.70;;;;;;351097;28;924;-54
2023/09/25 00:52:36;;;;;;;5.57;3.10;;;19.70;50.70;;;;;;351208;28;880;-56
2023/09/25 00:52:47;;;;;;;5.50;3.45;;;19.70;50.70;;;;;;351137;28;1134;-54
2023/09/25 00:53:06;;;;;;;5.72;3.65;;;19.70;50.70;;;;;;351147;28;1918;-54
2023/09/25 00:53:17;;;;;;;7.60;4.05;;;19.70;50.70;;;;;;351160;28;958;-55
2023/09/25 00:53:29;;;;;;;9.03;4.33;;;19.60;50.70;;;;;;351152;28;1122;-55
2023/09/25 00:53:41;;;;;;;9.80;4.40;;;19.60;50.70;;;;;;351146;28;1067;-54
2023/09/25 00:53:52;;;;;;;9.20;4.40;;;19.60;50.70;;;;;;351189;28;1780;-55
2023/09/25 00:54:03;;;;;;;9.13;4.30;;;19.60;50.70;;;;;;351084;28;983;-54
2023/09/25 00:54:18;;;;;;;8.27;4.10;;;19.60;50.70;;;;;;351151;28;1193;-55
2023/09/25 00:54:33;;;;;;;8.57;4.05;;;19.60;50.80;;;;;;351089;28;982;-54
2023/09/25 00:54:44;;;;;;;7.57;3.88;;;19.60;50.80;;;;;;351150;28;1118;-54
2023/09/25 00:54:54;;;;;;;6.00;3.58;;;19.60;50.80;;;;;;351066;28;1628;-55
2023/09/25 00:55:06;;;;;;;4.93;3.00;;;19.60;50.80;;;;;;351156;28;1070;-54
2023/09/25 00:55:16;;;;;;;6.65;3.05;;;19.60;50.70;;;;;;351173;28;995;-55
2023/09/25 00:55:27;;;;;;;6.32;2.92;;;19.60;50.70;;;;;;351140;28;1572;-54
2023/09/25 00:55:38;;;;;;;8.27;3.00;;;19.60;50.70;;;;;;351034;28;1220;-55
2023/09/25 00:55:49;;;;;;;7.05;2.80;;;19.60;50.70;;;;;;351191;28;999;-54
2023/09/25 00:56:01;;;;;;;7.55;2.67;;;19.50;50.60;;;;;;351172;28;1090;-54
2023/09/25 00:56:12;;;;;;;6.38;2.60;;;19.60;50.60;;;;;;351126;28;1031;-54
2023/09/25 00:56:23;;;;;;;6.03;2.45;;;19.60;50.60;;;;;;351162;28;1008;-54
2023/09/25 00:56:34;;;;;;;6.28;2.47;;;19.60;50.60;;;;;;351243;28;915;-55
2023/09/25 00:56:47;;;;;;;6.45;2.78;;;19.50;50.60;;;;;;351105;28;918;-55
2023/09/25 00:56:58;;;;;;;6.00;2.85;;;19.60;50.60;;;;;;351229;28;945;-54
2023/09/25 00:57:10;;;;;;;5.15;2.60;;;19.50;50.50;;;;;;351200;28;888;-56
2023/09/25 00:57:21;;;;;;;4.47;2.70;;;19.60;50.60;;;;;;351123;28;1105;-54
2023/09/25 00:57:35;;;;;;;4.30;3.10;;;19.50;50.60;;;;;;351199;28;876;-56
2023/09/25 00:57:48;;;;;;;4.70;3.30;;;19.50;50.60;;;;;;351190;28;1117;-55
2023/09/25 00:58:00;;;;;;;4.78;3.08;;;19.60;50.60;;;;;;351115;28;1003;-54
2023/09/25 00:58:11;;;;;;;5.35;3.20;;;19.60;50.60;;;;;;351166;28;983;-55
2023/09/25 00:58:23;;;;;;;5.68;3.30;;;19.50;50.60;;;;;;351171;28;1123;-55
2023/09/25 00:58:34;;;;;;;5.30;3.03;;;19.50;50.60;;;;;;351058;28;1770;-55
2023/09/25 00:58:45;;;;;;;5.53;3.08;;;19.50;50.60;;;;;;351230;28;999;-55
2023/09/25 00:58:57;;;;;;;5.43;3.10;;;19.50;50.60;;;;;;351176;28;1387;-55
2023/09/25 00:59:08;;;;;;;4.80;3.15;;;19.50;50.60;;;;;;351169;28;1007;-55
2023/09/25 00:59:20;;;;;;;4.45;2.97;;;19.50;50.60;;;;;;351044;28;1573;-55
2023/09/25 00:59:30;;;;;;;5.32;3.13;;;19.50;50.60;;;;;;351194;28;983;-54
2023/09/25 00:59:42;;;;;;;5.30;3.00;;;19.50;50.60;;;;;;351160;28;975;-54
2023/09/25 00:59:53;;;;;;;5.57;3.03;;;19.40;50.60;;;;;;351178;28;987;-55
2023/09/25 01:00:04;;;;;;;4.85;3.00;;;19.50;50.60;;;;;;351072;28;1153;-54
2023/09/25 01:00:17;;;;;;;5.38;3.00;;;19.50;50.60;;;;;;351179;28;1095;-55
2023/09/25 01:00:28;;;;;;;4.72;2.85;;;19.40;50.60;;;;;;351146;28;971;-54
2023/09/25 01:00:39;;;;;;;5.15;2.80;;;19.40;50.70;;;;;;351164;28;880;-55